createdAt,value
2023-05-25T00:01:11.070Z,101755.66
2023-05-25T00:03:40.443Z,101755.78
2023-05-25T00:06:07.986Z,101761.16
2023-05-25T00:08:35.314Z,101756.50
2023-05-25T00:11:02.569Z,101762.66
2023-05-25T00:13:29.791Z,101757.28
2023-05-25T00:15:57.004Z,101764.56
2023-05-25T00:18:25.025Z,101758.97
2023-05-25T00:20:58.329Z,101760.81
2023-05-25T00:23:25.697Z,101757.28
2023-05-25T00:25:52.914Z,101754.72
2023-05-25T00:28:20.130Z,101757.50
2023-05-25T00:30:47.748Z,101759.09
2023-05-25T00:33:15.981Z,101760.94
2023-05-25T00:35:44.621Z,101758.25
2023-05-25T00:38:12.864Z,101758.25
2023-05-25T00:40:41.138Z,101762.66
2023-05-25T00:43:09.198Z,101757.28
2023-05-25T00:45:36.500Z,101758.97
2023-05-25T00:48:05.477Z,101753.72
2023-05-25T00:50:41.877Z,101750.19
2023-05-25T00:53:10.667Z,101754.72
2023-05-25T00:55:56.278Z,101752.97
2023-05-25T00:58:27.153Z,101752.13
2023-05-25T01:00:56.261Z,101754.59
2023-05-25T01:03:28.384Z,101751.03
2023-05-25T01:05:56.206Z,101750.19
2023-05-25T01:08:25.116Z,101738.47
2023-05-25T01:10:54.111Z,101751.91
2023-05-25T01:13:21.503Z,101750.91
2023-05-25T01:15:49.286Z,101750.06
2023-05-25T01:18:17.882Z,101758.97
2023-05-25T01:20:53.606Z,101757.28
2023-05-25T01:23:25.845Z,101760.81
2023-05-25T01:25:56.314Z,101764.34
2023-05-25T01:28:28.279Z,101761.56
2023-05-25T01:30:56.964Z,101760.09
2023-05-25T01:33:24.929Z,101760.94
2023-05-25T01:35:52.646Z,101758.97
2023-05-25T01:38:20.064Z,101751.91
2023-05-25T01:40:47.286Z,101762.78
2023-05-25T01:43:14.592Z,101757.28
2023-05-25T01:45:42.149Z,101765.44
2023-05-25T01:48:31.029Z,101761.78
2023-05-25T01:51:05.313Z,101756.63
2023-05-25T01:53:37.410Z,101760.94
2023-05-25T01:56:08.830Z,101765.44
2023-05-25T01:58:40.060Z,101756.41
2023-05-25T02:01:09.597Z,101762.66
2023-05-25T02:03:38.270Z,101753.59
2023-05-25T02:06:05.547Z,101758.25
2023-05-25T02:08:32.796Z,101756.50
2023-05-25T02:11:00.925Z,101751.03
2023-05-25T02:13:28.253Z,101746.44
2023-05-25T02:15:55.642Z,101739.44
2023-05-25T02:18:23.660Z,101736.00
2023-05-25T02:20:51.569Z,101744.81
2023-05-25T02:23:21.665Z,101742.00
2023-05-25T02:25:49.482Z,101741.16
2023-05-25T02:28:17.203Z,101747.50
2023-05-25T02:30:44.409Z,101751.03
2023-05-25T02:33:11.692Z,101748.34
2023-05-25T02:35:39.575Z,101741.16
2023-05-25T02:38:08.256Z,101757.28
2023-05-25T02:40:35.511Z,101758.97
2023-05-25T02:43:02.715Z,101748.22
2023-05-25T02:45:29.925Z,101744.06
2023-05-25T02:47:57.316Z,101745.75
2023-05-25T02:50:24.787Z,101750.91
2023-05-25T02:52:52.123Z,101751.03
2023-05-25T02:55:19.403Z,101746.66
2023-05-25T02:57:46.726Z,101754.25
2023-05-25T03:00:14.560Z,101748.56
2023-05-25T03:02:41.807Z,101750.81
2023-05-25T03:05:09.395Z,101748.66
2023-05-25T03:07:36.660Z,101749.75
2023-05-25T03:10:04.233Z,101749.75
2023-05-25T03:12:31.638Z,101761.34
2023-05-25T03:14:58.857Z,101764.13
2023-05-25T03:17:26.304Z,101757.06
2023-05-25T03:19:53.605Z,101761.44
2023-05-25T03:22:21.159Z,101766.09
2023-05-25T03:24:49.469Z,101773.16
2023-05-25T03:27:16.758Z,101767.81
2023-05-25T03:29:43.992Z,101766.81
2023-05-25T03:32:11.277Z,101772.09
2023-05-25T03:34:38.563Z,101772.97
2023-05-25T03:37:05.939Z,101777.47
2023-05-25T03:39:33.227Z,101775.66
2023-05-25T03:42:00.967Z,101774.88
2023-05-25T03:44:28.169Z,101777.34
2023-05-25T03:46:55.372Z,101773.03
2023-05-25T03:49:22.569Z,101774.88
2023-05-25T03:51:49.802Z,101781.09
2023-05-25T03:54:17.066Z,101777.69
2023-05-25T03:56:44.289Z,101781.00
2023-05-25T03:59:11.877Z,101789.06
2023-05-25T04:01:40.004Z,101781.88
2023-05-25T04:04:08.282Z,101788.84
2023-05-25T04:06:37.423Z,101790.78
2023-05-25T04:09:04.836Z,101800.69
2023-05-25T04:11:32.088Z,101804.97
2023-05-25T04:13:59.952Z,101791.63
2023-05-25T04:16:27.239Z,101797.91
2023-05-25T04:18:54.531Z,101801.31
2023-05-25T04:21:21.892Z,101805.75
2023-05-25T04:23:49.251Z,101803.91
2023-05-25T04:26:16.556Z,101796.69
2023-05-25T04:28:44.031Z,101794.75
2023-05-25T04:31:12.782Z,101804.75
2023-05-25T04:33:40.682Z,101811.97
2023-05-25T04:36:08.894Z,101819.69
2023-05-25T04:38:36.120Z,101814.44
2023-05-25T04:41:03.794Z,101816.16
2023-05-25T04:43:31.006Z,101823.44
2023-05-25T04:45:59.890Z,101830.34
2023-05-25T04:48:28.558Z,101828.81
2023-05-25T04:50:56.015Z,101825.06
2023-05-25T04:53:23.642Z,101830.44
2023-05-25T04:55:51.611Z,101825.91
2023-05-25T04:58:19.255Z,101830.22
2023-05-25T05:00:47.190Z,101828.19
2023-05-25T05:03:14.705Z,101828.09
2023-05-25T05:05:43.817Z,101815.28
2023-05-25T05:08:11.297Z,101812.81
2023-05-25T05:10:38.640Z,101812.91
2023-05-25T05:13:05.905Z,101817.66
2023-05-25T05:15:33.182Z,101819.81
2023-05-25T05:18:00.530Z,101823.66
2023-05-25T05:20:28.268Z,101814.09
2023-05-25T05:22:55.555Z,101822.38
2023-05-25T05:25:22.776Z,101827.53
2023-05-25T05:27:50.238Z,101841.41
2023-05-25T05:30:17.545Z,101831.84
2023-05-25T05:32:46.612Z,101830.88
2023-05-25T05:35:14.112Z,101834.97
2023-05-25T05:37:41.350Z,101840.44
2023-05-25T05:40:10.798Z,101832.06
2023-05-25T05:42:38.087Z,101834.53
2023-05-25T05:45:05.953Z,101841.53
2023-05-25T05:47:33.265Z,101840.41
2023-05-25T05:50:00.584Z,101846.88
2023-05-25T05:52:27.951Z,101851.94
2023-05-25T05:54:55.234Z,101852.34
2023-05-25T05:57:22.428Z,101850.28
2023-05-25T05:59:49.734Z,101857.28
2023-05-25T06:02:17.278Z,101858.91
2023-05-25T06:04:44.707Z,101856.94
2023-05-25T06:07:12.000Z,101862.22
2023-05-25T06:09:39.287Z,101862.09
2023-05-25T06:12:07.534Z,101859.41
2023-05-25T06:14:34.799Z,101868.88
2023-05-25T06:17:02.402Z,101867.66
2023-05-25T06:19:29.862Z,101875.63
2023-05-25T06:21:57.289Z,101870.56
2023-05-25T06:24:24.578Z,101873.25
2023-05-25T06:26:51.845Z,101871.06
2023-05-25T06:29:19.104Z,101873.97
2023-05-25T06:31:46.589Z,101876.44
2023-05-25T06:34:13.991Z,101870.06
2023-05-25T06:36:41.930Z,101886.84
2023-05-25T06:39:09.268Z,101887.47
2023-05-25T06:41:38.324Z,101887.03
2023-05-25T06:44:05.612Z,101887.78
2023-05-25T06:46:33.326Z,101879.72
2023-05-25T06:49:01.339Z,101883.25
2023-05-25T06:51:29.224Z,101885.72
2023-05-25T06:53:57.057Z,101875.19
2023-05-25T06:56:24.435Z,101879.81
2023-05-25T06:58:51.872Z,101887.78
2023-05-25T07:01:19.235Z,101883.25
2023-05-25T07:03:46.633Z,101882.41
2023-05-25T07:06:15.125Z,101888.75
2023-05-25T07:08:42.366Z,101892.19
2023-05-25T07:11:14.163Z,101878.59
2023-05-25T07:13:41.437Z,101891.97
2023-05-25T07:16:08.733Z,101881.19
2023-05-25T07:18:38.448Z,101887.56
2023-05-25T07:21:05.965Z,101889.38
2023-05-25T07:23:33.495Z,101883.13
2023-05-25T07:26:01.086Z,101882.28
2023-05-25T07:28:32.470Z,101889.50
2023-05-25T07:30:59.763Z,101892.19
2023-05-25T07:33:27.005Z,101895.72
2023-05-25T07:35:54.344Z,101890.47
2023-05-25T07:38:21.665Z,101894.03
2023-05-25T07:40:49.935Z,101894.75
2023-05-25T07:43:17.178Z,101893.03
2023-05-25T07:45:44.814Z,101897.44
2023-05-25T07:48:12.361Z,101892.19
2023-05-25T07:50:39.616Z,101899.28
2023-05-25T07:53:06.887Z,101899.19
2023-05-25T07:55:34.121Z,101899.19
2023-05-25T07:58:01.442Z,101902.72
2023-05-25T08:00:28.846Z,101904.44
2023-05-25T08:02:56.884Z,101895.50
2023-05-25T08:05:24.595Z,101904.44
2023-05-25T08:07:51.857Z,101899.06
2023-05-25T08:10:19.136Z,101905.28
2023-05-25T08:12:49.747Z,101910.56
2023-05-25T08:15:18.076Z,101908.75
2023-05-25T08:17:45.691Z,101910.66
2023-05-25T08:20:14.056Z,101916.06
2023-05-25T08:22:41.354Z,101914.25
2023-05-25T08:25:09.151Z,101912.63
2023-05-25T08:27:36.930Z,101909.19
2023-05-25T08:30:08.267Z,101901.97
2023-05-25T08:32:35.727Z,101901.88
2023-05-25T08:35:03.567Z,101910.03
2023-05-25T08:37:32.654Z,101912.72
2023-05-25T08:40:02.206Z,101906.41
2023-05-25T08:42:30.137Z,101905.28
2023-05-25T08:44:58.781Z,101907.88
2023-05-25T08:47:29.660Z,101901.53
2023-05-25T08:49:57.260Z,101911.22
2023-05-25T08:52:26.502Z,101909.81
2023-05-25T08:54:56.101Z,101905.81
2023-05-25T08:57:38.911Z,101914.38
2023-05-25T09:00:10.981Z,101914.53
2023-05-25T09:02:45.686Z,101918.69
2023-05-25T09:05:14.184Z,101918.94
2023-05-25T09:07:43.146Z,101927.19
2023-05-25T09:10:13.154Z,101926.41
2023-05-25T09:12:41.972Z,101930.25
2023-05-25T09:15:11.674Z,101939.00
2023-05-25T09:17:39.645Z,101933.97
2023-05-25T09:20:09.284Z,101935.69
2023-05-25T09:22:36.793Z,101926.31
2023-05-25T09:25:08.522Z,101933.59
2023-05-25T09:27:37.584Z,101936.69
2023-05-25T09:30:05.899Z,101944.91
2023-05-25T09:32:33.501Z,101941.09
2023-05-25T09:35:11.414Z,101943.53
2023-05-25T09:37:39.128Z,101940.19
2023-05-25T09:40:07.308Z,101941.69
2023-05-25T09:42:34.860Z,101942.03
2023-05-25T09:45:02.912Z,101937.38
2023-05-25T09:47:30.212Z,101939.44
2023-05-25T09:49:57.935Z,101937.19
2023-05-25T09:52:25.798Z,101944.38
2023-05-25T09:54:53.585Z,101953.53
2023-05-25T09:57:21.281Z,101951.72
2023-05-25T09:59:48.590Z,101949.75
2023-05-25T10:02:16.100Z,101937.19
2023-05-25T10:04:43.712Z,101944.28
2023-05-25T10:07:11.318Z,101950.41
2023-05-25T10:09:42.374Z,101946.22
2023-05-25T10:12:10.085Z,101953.78
2023-05-25T10:14:38.595Z,101955.94
2023-05-25T10:17:08.044Z,101951.50
2023-05-25T10:19:46.946Z,101952.44
2023-05-25T10:22:14.379Z,101948.81
2023-05-25T10:25:00.103Z,101951.59
2023-05-25T10:27:33.149Z,101952.38
2023-05-25T10:30:00.734Z,101948.38
2023-05-25T10:32:29.147Z,101937.53
2023-05-25T10:34:58.034Z,101945.06
2023-05-25T10:37:28.443Z,101952.66
2023-05-25T10:39:58.187Z,101950.56
2023-05-25T10:42:27.802Z,101943.34
2023-05-25T10:44:56.590Z,101943.88
2023-05-25T10:47:24.108Z,101939.38
2023-05-25T10:50:02.996Z,101948.72
2023-05-25T10:52:31.428Z,101943.47
2023-05-25T10:55:01.858Z,101936.47
2023-05-25T10:57:29.363Z,101942.59
2023-05-25T11:00:06.429Z,101939.16
2023-05-25T11:02:53.591Z,101943.00
2023-05-25T11:05:39.637Z,101951.75
2023-05-25T11:08:09.155Z,101958.91
2023-05-25T11:10:48.054Z,101935.28
2023-05-25T11:13:34.096Z,101946.66
2023-05-25T11:16:27.040Z,101944.41
2023-05-25T11:18:58.945Z,101939.88
2023-05-25T11:21:32.168Z,101931.19
2023-05-25T11:24:13.276Z,101938.06
2023-05-25T11:26:57.172Z,101928.47
2023-05-25T11:29:26.892Z,101940.97
2023-05-25T11:31:55.468Z,101943.97
2023-05-25T11:34:28.011Z,101946.66
2023-05-25T11:36:57.824Z,101940.19
2023-05-25T11:39:25.111Z,101937.84
2023-05-25T11:41:57.016Z,101946.56
2023-05-25T11:44:29.300Z,101947.75
2023-05-25T11:46:58.232Z,101941.22
2023-05-25T11:49:26.020Z,101944.41
2023-05-25T11:51:54.474Z,101936.34
2023-05-25T11:54:23.919Z,101932.25
2023-05-25T11:56:51.300Z,101933.66
2023-05-25T11:59:18.565Z,101926.66
2023-05-25T12:01:59.453Z,101918.91
2023-05-25T12:04:27.006Z,101928.69
2023-05-25T12:07:02.836Z,101929.56
2023-05-25T12:09:30.133Z,101925.28
2023-05-25T12:11:57.583Z,101927.31
2023-05-25T12:14:25.382Z,101920.00
2023-05-25T12:16:53.316Z,101930.94
2023-05-25T12:19:21.200Z,101929.22
2023-05-25T12:21:51.208Z,101923.66
2023-05-25T12:24:19.031Z,101922.16
2023-05-25T12:26:58.907Z,101941.44
2023-05-25T12:29:26.286Z,101929.47
2023-05-25T12:31:53.585Z,101932.16
2023-05-25T12:34:28.776Z,101928.06
2023-05-25T12:36:57.146Z,101935.06
2023-05-25T12:39:30.359Z,101927.31
2023-05-25T12:41:59.430Z,101931.53
2023-05-25T12:44:34.008Z,101939.81
2023-05-25T12:47:20.318Z,101933.13
2023-05-25T12:49:52.866Z,101923.53
2023-05-25T12:52:37.096Z,101929.44
2023-05-25T12:55:33.042Z,101932.00
2023-05-25T12:58:07.843Z,101927.94
2023-05-25T13:00:37.730Z,101927.09
2023-05-25T13:03:08.792Z,101928.16
2023-05-25T13:05:37.649Z,101915.25
2023-05-25T13:08:05.567Z,101915.25
2023-05-25T13:10:33.442Z,101912.47
2023-05-25T13:13:01.124Z,101908.78
2023-05-25T13:15:29.140Z,101906.75
2023-05-25T13:17:58.375Z,101908.69
2023-05-25T13:20:27.377Z,101909.44
2023-05-25T13:22:57.897Z,101900.41
2023-05-25T13:25:27.626Z,101898.03
2023-05-25T13:27:56.983Z,101907.94
2023-05-25T13:30:24.220Z,101901.72
2023-05-25T13:32:52.915Z,101898.91
2023-05-25T13:35:37.526Z,101898.91
2023-05-25T13:38:05.683Z,101900.50
2023-05-25T13:40:32.889Z,101895.50
2023-05-25T13:43:00.157Z,101898.91
2023-05-25T13:45:27.711Z,101898.81
2023-05-25T13:47:55.136Z,101899.91
2023-05-25T13:50:22.802Z,101902.03
2023-05-25T13:52:50.627Z,101899.47
2023-05-25T13:55:18.064Z,101899.34
2023-05-25T13:57:45.405Z,101896.78
2023-05-25T14:00:14.322Z,101906.88
2023-05-25T14:02:41.656Z,101897.72
2023-05-25T14:05:09.604Z,101904.28
2023-05-25T14:07:37.541Z,101900.41
2023-05-25T14:10:05.962Z,101890.34
2023-05-25T14:12:33.334Z,101885.81
2023-05-25T14:15:02.435Z,101881.63
2023-05-25T14:17:35.762Z,101884.94
2023-05-25T14:20:06.480Z,101892.41
2023-05-25T14:22:33.801Z,101884.44
2023-05-25T14:25:01.118Z,101883.94
2023-05-25T14:27:28.382Z,101882.69
2023-05-25T14:29:55.585Z,101886.28
2023-05-25T14:32:23.119Z,101885.97
2023-05-25T14:34:50.350Z,101880.19
2023-05-25T14:37:17.883Z,101881.47
2023-05-25T14:39:45.529Z,101877.50
2023-05-25T14:42:12.780Z,101876.09
2023-05-25T14:44:39.970Z,101874.69
2023-05-25T14:47:08.456Z,101870.81
2023-05-25T14:49:35.906Z,101874.78
2023-05-25T14:52:03.336Z,101872.81
2023-05-25T14:54:30.624Z,101866.34
2023-05-25T14:56:57.837Z,101870.53
2023-05-25T14:59:25.264Z,101862.72
2023-05-25T15:01:53.230Z,101866.34
2023-05-25T15:04:20.764Z,101874.66
2023-05-25T15:06:48.361Z,101862.00
2023-05-25T15:09:16.852Z,101866.31
2023-05-25T15:11:44.270Z,101868.91
2023-05-25T15:14:11.530Z,101866.94
2023-05-25T15:16:39.622Z,101876.63
2023-05-25T15:19:10.628Z,101857.78
2023-05-25T15:21:39.257Z,101864.16
2023-05-25T15:24:06.736Z,101861.13
2023-05-25T15:26:34.163Z,101854.53
2023-05-25T15:29:01.416Z,101861.25
2023-05-25T15:31:28.747Z,101857.53
2023-05-25T15:33:58.945Z,101851.66
2023-05-25T15:36:26.504Z,101853.84
2023-05-25T15:38:53.903Z,101855.16
2023-05-25T15:41:21.899Z,101860.66
2023-05-25T15:43:52.773Z,101855.28
2023-05-25T15:46:20.224Z,101864.53
2023-05-25T15:48:47.521Z,101855.59
2023-05-25T15:51:14.971Z,101850.25
2023-05-25T15:53:42.204Z,101854.38
2023-05-25T15:56:09.594Z,101855.63
2023-05-25T15:58:37.395Z,101860.47
2023-05-25T16:01:04.913Z,101858.25
2023-05-25T16:03:32.754Z,101856.19
2023-05-25T16:06:00.515Z,101857.03
2023-05-25T16:08:34.042Z,101862.41
2023-05-25T16:11:01.305Z,101850.06
2023-05-25T16:13:28.996Z,101854.25
2023-05-25T16:15:56.240Z,101848.88
2023-05-25T16:18:23.523Z,101846.03
2023-05-25T16:20:55.921Z,101850.47
2023-05-25T16:23:23.851Z,101855.88
2023-05-25T16:25:51.483Z,101848.75
2023-05-25T16:28:18.771Z,101844.34
2023-05-25T16:30:46.051Z,101844.47
2023-05-25T16:33:13.331Z,101852.41
2023-05-25T16:35:40.609Z,101847.88
2023-05-25T16:38:07.836Z,101845.09
2023-05-25T16:40:35.070Z,101839.59
2023-05-25T16:43:02.280Z,101850.25
2023-05-25T16:45:29.813Z,101844.75
2023-05-25T16:47:57.121Z,101840.22
2023-05-25T16:50:24.509Z,101843.03
2023-05-25T16:52:51.856Z,101838.72
2023-05-25T16:55:19.217Z,101833.56
2023-05-25T16:57:46.495Z,101832.59
2023-05-25T17:00:14.266Z,101824.75
2023-05-25T17:02:41.595Z,101830.13
2023-05-25T17:05:09.302Z,101826.72
2023-05-25T17:07:37.701Z,101831.13
2023-05-25T17:10:15.608Z,101828.41
2023-05-25T17:12:43.285Z,101831.97
2023-05-25T17:15:13.561Z,101839.81
2023-05-25T17:17:41.288Z,101829.81
2023-05-25T17:20:09.012Z,101829.81
2023-05-25T17:22:37.212Z,101839.72
2023-05-25T17:25:06.036Z,101837.88
2023-05-25T17:27:33.513Z,101832.50
2023-05-25T17:30:00.834Z,101837.88
2023-05-25T17:32:28.086Z,101844.09
2023-05-25T17:34:55.382Z,101849.50
2023-05-25T17:37:22.762Z,101841.41
2023-05-25T17:39:50.002Z,101844.75
2023-05-25T17:42:17.367Z,101835.69
2023-05-25T17:44:44.844Z,101833.97
2023-05-25T17:47:12.109Z,101843.88
2023-05-25T17:49:39.345Z,101839.59
2023-05-25T17:52:07.589Z,101837.03
2023-05-25T17:54:35.814Z,101843.13
2023-05-25T17:57:03.578Z,101844.09
2023-05-25T17:59:31.183Z,101842.63
2023-05-25T18:01:58.461Z,101848.25
2023-05-25T18:04:26.854Z,101845.88
2023-05-25T18:06:54.475Z,101850.97
2023-05-25T18:09:22.144Z,101850.00
2023-05-25T18:11:49.699Z,101848.91
2023-05-25T18:14:17.002Z,101851.59
2023-05-25T18:16:45.046Z,101856.00
2023-05-25T18:19:15.223Z,101848.69
2023-05-25T18:21:42.859Z,101853.84
2023-05-25T18:24:10.578Z,101847.72
2023-05-25T18:26:38.145Z,101856.00
2023-05-25T18:29:05.624Z,101860.66
2023-05-25T18:31:33.489Z,101852.63
2023-05-25T18:34:00.993Z,101852.94
2023-05-25T18:36:28.253Z,101850.19
2023-05-25T18:38:55.692Z,101857.50
2023-05-25T18:41:24.361Z,101854.19
2023-05-25T18:43:51.902Z,101859.13
2023-05-25T18:46:19.702Z,101866.75
2023-05-25T18:48:47.057Z,101856.84
2023-05-25T18:51:15.745Z,101862.09
2023-05-25T18:53:43.326Z,101861.03
2023-05-25T18:56:11.023Z,101860.91
2023-05-25T18:58:38.315Z,101861.78
2023-05-25T19:01:05.532Z,101857.47
2023-05-25T19:03:34.055Z,101861.66
2023-05-25T19:06:03.262Z,101866.19
2023-05-25T19:08:30.661Z,101861.03
2023-05-25T19:10:58.297Z,101869.09
2023-05-25T19:13:28.658Z,101871.78
2023-05-25T19:15:56.041Z,101865.53
2023-05-25T19:18:23.320Z,101874.59
2023-05-25T19:20:51.387Z,101868.34
2023-05-25T19:23:19.574Z,101870.28
2023-05-25T19:25:47.168Z,101878.22
2023-05-25T19:28:14.631Z,101888.91
2023-05-25T19:30:41.905Z,101879.97
2023-05-25T19:33:09.374Z,101876.53
2023-05-25T19:35:37.188Z,101887.19
2023-05-25T19:38:04.559Z,101881.13
2023-05-25T19:40:33.110Z,101886.28
2023-05-25T19:43:00.370Z,101890.94
2023-05-25T19:45:27.882Z,101887.31
2023-05-25T19:47:55.424Z,101886.44
2023-05-25T19:50:22.852Z,101885.38
2023-05-25T19:52:50.089Z,101892.47
2023-05-25T19:55:17.380Z,101887.41
2023-05-25T19:57:44.823Z,101889.91
2023-05-25T20:00:21.349Z,101888.38
2023-05-25T20:02:54.157Z,101882.03
2023-05-25T20:05:21.596Z,101885.59
2023-05-25T20:07:50.834Z,101886.88
2023-05-25T20:10:18.478Z,101889.13
2023-05-25T20:12:46.534Z,101893.75
2023-05-25T20:15:13.967Z,101894.63
2023-05-25T20:17:41.461Z,101903.75
2023-05-25T20:20:08.883Z,101906.00
2023-05-25T20:22:36.161Z,101904.25
2023-05-25T20:25:03.519Z,101894.50
2023-05-25T20:27:30.743Z,101903.44
2023-05-25T20:29:58.104Z,101910.72
2023-05-25T20:32:25.633Z,101907.72
2023-05-25T20:34:53.015Z,101915.78
2023-05-25T20:37:20.448Z,101921.16
2023-05-25T20:39:48.005Z,101912.75
2023-05-25T20:42:15.430Z,101911.81
2023-05-25T20:44:42.838Z,101914.19
2023-05-25T20:47:10.072Z,101916.22
2023-05-25T20:49:37.461Z,101910.97
2023-05-25T20:52:05.185Z,101915.38
2023-05-25T20:54:33.369Z,101915.38
2023-05-25T20:57:04.226Z,101922.81
2023-05-25T20:59:31.790Z,101913.75
2023-05-25T21:01:59.132Z,101915.47
2023-05-25T21:04:28.128Z,101920.84
2023-05-25T21:06:56.513Z,101920.84
2023-05-25T21:09:24.530Z,101910.31
2023-05-25T21:11:51.977Z,101919.34
2023-05-25T21:14:19.442Z,101920.56
2023-05-25T21:16:47.245Z,101927.75
2023-05-25T21:19:14.663Z,101925.06
2023-05-25T21:21:42.126Z,101921.06
2023-05-25T21:24:09.409Z,101931.38
2023-05-25T21:26:37.000Z,101927.00
2023-05-25T21:29:04.500Z,101917.44
2023-05-25T21:31:32.012Z,101912.91
2023-05-25T21:34:00.206Z,101921.25
2023-05-25T21:36:28.192Z,101924.84
2023-05-25T21:38:55.627Z,101910.28
2023-05-25T21:41:23.382Z,101927.31
2023-05-25T21:43:50.852Z,101925.69
2023-05-25T21:46:18.137Z,101930.72
2023-05-25T21:48:45.357Z,101931.72
2023-05-25T21:51:12.600Z,101932.44
2023-05-25T21:53:39.814Z,101922.56
2023-05-25T21:56:07.045Z,101933.56
2023-05-25T21:58:34.305Z,101931.59
2023-05-25T22:01:01.690Z,101944.19
2023-05-25T22:03:28.958Z,101935.47
2023-05-25T22:05:56.287Z,101944.41
2023-05-25T22:08:23.702Z,101947.84
2023-05-25T22:10:50.968Z,101943.75
2023-05-25T22:13:18.235Z,101946.88
2023-05-25T22:15:45.740Z,101951.50
2023-05-25T22:18:13.200Z,101951.94
2023-05-25T22:20:42.070Z,101949.69
2023-05-25T22:23:12.030Z,101957.63
2023-05-25T22:25:39.471Z,101954.72
2023-05-25T22:28:06.760Z,101950.84
2023-05-25T22:30:34.126Z,101952.91
2023-05-25T22:33:01.426Z,101955.81
2023-05-25T22:35:28.722Z,101960.25
2023-05-25T22:37:56.076Z,101957.66
2023-05-25T22:40:23.581Z,101958.50
2023-05-25T22:42:50.892Z,101956.78
2023-05-25T22:45:18.735Z,101958.63
2023-05-25T22:47:46.011Z,101967.53
2023-05-25T22:50:13.786Z,101967.53
2023-05-25T22:52:41.814Z,101968.53
2023-05-25T22:55:09.904Z,101966.78
2023-05-25T22:57:37.639Z,101968.53
2023-05-25T23:00:05.291Z,101968.53
2023-05-25T23:02:32.955Z,101970.34
2023-05-25T23:05:02.331Z,101970.34
2023-05-25T23:07:29.635Z,101976.59
2023-05-25T23:09:57.006Z,101971.22
2023-05-25T23:12:24.245Z,101969.59
2023-05-25T23:14:51.885Z,101975.81
2023-05-25T23:17:22.480Z,101963.25
2023-05-25T23:19:49.896Z,101967.75
2023-05-25T23:22:17.166Z,101958.72
2023-05-25T23:24:44.388Z,101959.69
2023-05-25T23:27:11.608Z,101955.28
2023-05-25T23:29:38.876Z,101962.38
2023-05-25T23:32:06.560Z,101958.84
2023-05-25T23:34:33.944Z,101960.66
2023-05-25T23:37:01.460Z,101963.38
2023-05-25T23:39:28.682Z,101967.00
2023-05-25T23:41:55.886Z,101970.56
2023-05-25T23:44:23.443Z,101970.44
2023-05-25T23:46:51.239Z,101971.22
2023-05-25T23:49:18.454Z,101972.28
2023-05-25T23:51:45.881Z,101976.81
2023-05-25T23:54:13.167Z,101973.13
2023-05-25T23:56:40.439Z,101976.81
2023-05-25T23:59:07.675Z,101965.19
